地図

経路データ

SID SEASON NUMBER BASIN SUBBASIN NAME ISO_TIME NATURE LAT LON WMO_WIND WMO_PRES WMO_AGENCY TRACK_TYPE DIST2LAND LANDFALL IFLAG USA_AGENCY USA_ATCF_ID USA_LAT USA_LON USA_RECORD USA_STATUS USA_WIND USA_PRES USA_SSHS USA_R34_NE USA_R34_SE USA_R34_SW USA_R34_NW USA_R50_NE USA_R50_SE USA_R50_SW USA_R50_NW USA_R64_NE USA_R64_SE USA_R64_SW USA_R64_NW USA_POCI USA_ROCI USA_RMW USA_EYE TOKYO_LAT TOKYO_LON TOKYO_GRADE TOKYO_WIND TOKYO_PRES TOKYO_R50_DIR TOKYO_R50_LONG TOKYO_R50_SHORT TOKYO_R30_DIR TOKYO_R30_LONG TOKYO_R30_SHORT TOKYO_LAND CMA_LAT CMA_LON CMA_CAT CMA_WIND CMA_PRES HKO_LAT HKO_LON HKO_CAT HKO_WIND HKO_PRES NEWDELHI_LAT NEWDELHI_LON NEWDELHI_GRADE NEWDELHI_WIND NEWDELHI_PRES NEWDELHI_CI NEWDELHI_DP NEWDELHI_POCI REUNION_LAT REUNION_LON REUNION_TYPE REUNION_WIND REUNION_PRES REUNION_TNUM REUNION_CI REUNION_RMW REUNION_R34_NE REUNION_R34_SE REUNION_R34_SW REUNION_R34_NW REUNION_R50_NE REUNION_R50_SE REUNION_R50_SW REUNION_R50_NW REUNION_R64_NE REUNION_R64_SE REUNION_R64_SW REUNION_R64_NW BOM_LAT BOM_LON BOM_TYPE BOM_WIND BOM_PRES BOM_TNUM BOM_CI BOM_RMW BOM_R34_NE BOM_R34_SE BOM_R34_SW BOM_R34_NW BOM_R50_NE BOM_R50_SE BOM_R50_SW BOM_R50_NW BOM_R64_NE BOM_R64_SE BOM_R64_SW BOM_R64_NW BOM_ROCI BOM_POCI BOM_EYE BOM_POS_METHOD BOM_PRES_METHOD NADI_LAT NADI_LON NADI_CAT NADI_WIND NADI_PRES WELLINGTON_LAT WELLINGTON_LON WELLINGTON_WIND WELLINGTON_PRES DS824_LAT DS824_LON DS824_STAGE DS824_WIND DS824_PRES TD9636_LAT TD9636_LON TD9636_STAGE TD9636_WIND TD9636_PRES TD9635_LAT TD9635_LON TD9635_WIND TD9635_PRES TD9635_ROCI NEUMANN_LAT NEUMANN_LON NEUMANN_CLASS NEUMANN_WIND NEUMANN_PRES MLC_LAT MLC_LON MLC_CLASS MLC_WIND MLC_PRES USA_GUST BOM_GUST BOM_GUST_PER REUNION_GUST REUNION_GUST_PER USA_SEAHGT USA_SEARAD_NE USA_SEARAD_SE USA_SEARAD_SW USA_SEARAD_NW STORM_SPEED STORM_DIR
1947035S15121 1947 13 SI WA NOT_NAMED 1947-02-03 23:00:00 NR -15.0000 121.300 main 239 239 __________O___ -1 -15.0000 121.300 7 1 0
1947035S15121 1947 13 SI WA NOT_NAMED 1947-02-04 00:00:00 TS -15.0200 121.299 main 239 232 O________OP___ jtwc_sh SH131947 -15.0000 121.300 -1 -15.0000 121.300 TC -15.0400 121.298 7 2 186
1947035S15121 1947 13 SI WA NOT_NAMED 1947-02-04 03:00:00 TS -15.1244 121.297 main 232 224 P________PP___ SH131947 -15.1000 121.300 -1 -15.1000 121.300 TC -15.1570 121.292 7 2 0
1947035S15121 1947 13 SI WA NOT_NAMED 1947-02-04 06:00:00 TS -15.2256 121.296 main 224 216 O________OP___ jtwc_sh SH131947 -15.2000 121.300 -1 -15.2000 121.300 TC -15.2641 121.290 7 2 176
1947035S15121 1947 13 SI WA NOT_NAMED 1947-02-04 09:00:00 TS -15.3179 121.298 main 216 208 P________PP___ SH131947 -15.3000 121.300 -1 -15.3000 121.300 TC -15.3537 121.293 7 2 173
1947035S15121 1947 13 SI WA NOT_NAMED 1947-02-04 11:00:00 TS -15.3778 121.300 main 208 208 P________PO___ SH131947 -15.3667 121.300 -1 -15.3667 121.300 TC -15.4000 121.300 7 2 176
1947035S15121 1947 13 SI WA NOT_NAMED 1947-02-04 12:00:00 TS -15.4062 121.302 main 208 201 O________OP___ jtwc_sh SH131947 -15.4000 121.300 -1 -15.4000 121.300 TC -15.4186 121.305 7 2 0
1947035S15121 1947 13 SI WA NOT_NAMED 1947-02-04 15:00:00 TS -15.4844 121.307 main 201 193 P________PP___ SH131947 -15.4925 121.300 -1 -15.4925 121.300 TC -15.4681 121.322 7 2 0
1947035S15121 1947 13 SI WA NOT_NAMED 1947-02-04 18:00:00 TS -15.5792 121.311 main 193 185 O________OP___ jtwc_sh SH131947 -15.6000 121.300 -1 -15.6000 121.300 TC -15.5377 121.332 7 2 175
1947035S15121 1947 13 SI WA NOT_NAMED 1947-02-04 21:00:00 TS -15.6966 121.313 main 185 177 P________PP___ SH131947 -15.7125 121.307 -1 -15.7125 121.307 TC -15.6648 121.323 7 3 183
1947035S15121 1947 13 SI WA NOT_NAMED 1947-02-04 23:00:00 TS -15.8164 121.304 main 177 170 P________PO___ SH131947 -15.8245 121.306 -1 -15.8245 121.306 TC -15.8000 121.300 7 4 0
1947035S15121 1947 13 SI WA NOT_NAMED 1947-02-05 00:00:00 TS -15.8989 121.298 main 170 170 O________OP___ jtwc_sh SH131947 -15.9000 121.300 -1 -15.9000 121.300 TC -15.8967 121.293 7 4 170
1947035S15121 1947 13 SI WA NOT_NAMED 1947-02-05 01:00:00 TS -15.9332 121.324 995 bom main 170 154 P_____O__PP___ SH131947 -15.9886 121.297 -1 -15.2000 121.700 995 -15.9886 121.297 TC -16.0059 121.285 7 5 177
1947035S15121 1947 13 SI WA NOT_NAMED 1947-02-05 03:00:00 TS -16.1259 121.303 main 154 135 P_____P__PP___ SH131947 -16.2050 121.280 -1 -15.5522 121.484 991 -16.2050 121.280 TC -16.2545 121.258 7 7 193
1947035S15121 1947 13 SI WA NOT_NAMED 1947-02-05 06:00:00 TS -16.5130 121.187 main 135 129 O_____P__OP___ jtwc_sh SH131947 -16.6000 121.200 -1 -16.0616 121.161 987 -16.6000 121.200 TC -16.6774 121.180 7 8 199
1947035S15121 1947 13 SI WA NOT_NAMED 1947-02-05 07:30:00 TS -16.7090 121.097 985 bom main 134 129 P_____O__PP___ SH131947 -16.8187 121.134 -1 -16.3000 121.000 985 -16.8187 121.134 TC -16.8987 121.119 7 9 204
1947035S15121 1947 13 SI WA NOT_NAMED 1947-02-05 09:00:00 TS -16.9355 120.992 main 135 131 P_____P__PP___ SH131947 -17.0499 121.045 -1 -16.5235 120.840 -17.0499 121.045 TC -17.1187 121.040 7 10 206
1947035S15121 1947 13 SI WA NOT_NAMED 1947-02-05 11:00:00 TS -17.2278 120.827 main 145 141 P_____P__PO___ SH131947 -17.3561 120.892 -1 -16.7989 120.626 -17.3561 120.892 TC -17.4000 120.900 7 10 210
1947035S15121 1947 13 SI WA NOT_NAMED 1947-02-05 12:00:00 TS -17.3637 120.735 main 150 148 O_____P__OP___ jtwc_sh SH131947 -17.5000 120.800 -1 -16.9277 120.519 -17.5000 120.800 TC -17.5270 120.821 7 10 218
1947035S15121 1947 13 SI WA NOT_NAMED 1947-02-05 15:00:00 TS -17.7303 120.422 main 170 163 P_____P__PP___ SH131947 -17.8724 120.487 -1 -17.2814 120.188 -17.8724 120.487 TC -17.8948 120.525 7 10 223
1947035S15121 1947 13 SI WA NOT_NAMED 1947-02-05 18:00:00 TS -18.0566 120.048 main 187 182 O_____P__OP___ jtwc_sh SH131947 -18.2000 120.100 -1 -17.5929 119.839 -18.2000 120.100 TC -18.2336 120.154 7 10 230
1947035S15121 1947 13 SI WA NOT_NAMED 1947-02-05 21:00:00 TS -18.3652 119.632 main 179 170 P_____P__PP___ SH131947 -18.5299 119.673 -1 -17.8701 119.462 -18.5299 119.673 TC -18.5309 119.719 7 10 234
1947035S15121 1947 13 SI WA NOT_NAMED 1947-02-05 23:00:00 TS -18.5448 119.328 main 175 165 P_____P__PO___ SH131947 -18.7197 119.361 -1 -18.0397 119.191 -18.7197 119.361 TC -18.7000 119.400 7 10 239
1947035S15121 1947 13 SI WA NOT_NAMED 1947-02-06 00:00:00 TS -18.6232 119.175 main 167 156 O_____P__OP___ jtwc_sh SH131947 -18.8000 119.200 -1 -18.1209 119.048 -18.8000 119.200 TC -18.7720 119.252 7 10 243
1947035S15121 1947 13 SI WA NOT_NAMED 1947-02-06 01:00:00 TS -18.6927 119.022 970 bom main 156 146 P_____O__PP___ SH131947 -18.8670 119.044 -1 -18.2000 118.900 970 4 -18.8670 119.044 TC -18.8368 119.099 7 10 247
1947035S15121 1947 13 SI WA NOT_NAMED 1947-02-06 03:00:00 TS -18.8107 118.698 main 151 144 P_____P__PP___ SH131947 -18.9723 118.722 -1 -18.3494 118.573 -18.9723 118.722 TC -18.9488 118.775 7 10 252
1947035S15121 1947 13 SI WA NOT_NAMED 1947-02-06 06:00:00 TS -18.9577 118.170 main 155 148 O_____P__OP___ jtwc_sh SH131947 -19.1000 118.200 -1 -18.5438 118.041 -19.1000 118.200 TC -19.0869 118.241 7 11 254
1947035S15121 1947 13 SI WA NOT_NAMED 1947-02-06 09:00:00 TS -19.1059 117.604 main 154 152 P_____P__PP___ SH131947 -19.2495 117.652 -1 -18.7130 117.469 -19.2495 117.652 TC -19.2117 117.641 7 12 255
1947035S15121 1947 13 SI WA NOT_NAMED 1947-02-06 11:00:00 TS -19.2043 117.185 main 162 157 P_____P__PO___ SH131947 -19.3497 117.234 -1 -18.8180 117.072 -19.3497 117.234 TC -19.3000 117.200 7 13 256
1947035S15121 1947 13 SI WA NOT_NAMED 1947-02-06 12:00:00 TS -19.2547 116.955 main 146 137 O_____P__OP___ jtwc_sh SH131947 -19.4000 117.000 -1 -18.8694 116.870 -19.4000 117.000 TC -19.3495 116.948 7 15 258
1947035S15121 1947 13 SI WA NOT_NAMED 1947-02-06 15:00:00 TS -19.4029 116.182 main 144 144 P_____P__PP___ SH131947 -19.5428 116.172 -1 -19.0252 116.252 -19.5428 116.172 TC -19.5007 116.131 7 15 258
1947035S15121 1947 13 SI WA NOT_NAMED 1947-02-06 18:00:00 TS -19.5643 115.377 main 167 167 O_____P__OP___ jtwc_sh SH131947 -19.7000 115.300 -1 -19.1927 115.628 -19.7000 115.300 TC -19.6647 115.280 7 15 257
1947035S15121 1947 13 SI WA NOT_NAMED 1947-02-06 21:00:00 TS -19.7520 114.615 main 198 198 P_____P__PP___ SH131947 -19.8850 114.490 -1 -19.3845 115.006 -19.8850 114.490 TC -19.8536 114.474 7 14 254
1947035S15121 1947 13 SI WA NOT_NAMED 1947-02-06 23:00:00 TS -19.8955 114.155 main 214 214 P_____P__PO___ SH131947 -20.0250 114.010 -1 -19.5321 114.599 -20.0250 114.010 TC -20.0000 114.000 7 13 252
1947035S15121 1947 13 SI WA NOT_NAMED 1947-02-07 00:00:00 TS -19.9502 113.976 main 210 210 O_____P__OP___ jtwc_sh SH131947 -20.1000 113.800 -1 -19.6133 114.398 -20.1000 113.800 TC -20.0751 113.802 7 10 250
1947035S15121 1947 13 SI WA NOT_NAMED 1947-02-07 01:00:00 TS -20.0152 113.812 970 bom main 213 197 P_____O__PP___ SH131947 -20.1721 113.610 -1 -19.7000 114.200 970 -20.1721 113.610 TC -20.1544 113.617 7 10 243
1947035S15121 1947 13 SI WA NOT_NAMED 1947-02-07 03:00:00 TS -20.1862 113.493 main 197 182 P_____P__PP___ SH131947 -20.3271 113.290 -1 -19.8910 113.813 -20.3271 113.290 TC -20.3259 113.287 7 10 236
1947035S15121 1947 13 SI WA NOT_NAMED 1947-02-07 06:00:00 TS -20.4939 113.057 main 182 178 O_____P__OP___ jtwc_sh SH131947 -20.6000 112.900 -1 -20.2181 113.251 -20.6000 112.900 TC -20.6172 112.868 7 11 231
1947035S15121 1947 13 SI WA NOT_NAMED 1947-02-07 09:00:00 TS -20.8458 112.625 main 190 183 P_____P__PP___ SH131947 -20.9199 112.527 -1 -20.5882 112.710 -20.9199 112.527 TC -20.9518 112.515 7 11 227
1947035S15121 1947 13 SI WA NOT_NAMED 1947-02-07 11:00:00 TS -21.1028 112.353 main 188 188 P_____P__PO___ SH131947 -21.1666 112.306 -1 -20.8554 112.358 -21.1666 112.306 TC -21.2000 112.300 7 11 224
1947035S15121 1947 13 SI WA NOT_NAMED 1947-02-07 12:00:00 TS -21.2309 112.223 main 201 197 O_____P__OP___ jtwc_sh SH131947 -21.3000 112.200 -1 -20.9944 112.184 -21.3000 112.200 TC -21.3318 112.195 7 11 223
1947035S15121 1947 13 SI WA NOT_NAMED 1947-02-07 15:00:00 TS -21.6485 111.813 main 216 210 P_____P__PP___ SH131947 -21.7351 111.895 -1 -21.4296 111.670 -21.7351 111.895 TC -21.7541 111.889 7 12 224
1947035S15121 1947 13 SI WA NOT_NAMED 1947-02-07 18:00:00 TS -22.0701 111.362 main 232 232 O_____P__OP___ jtwc_sh SH131947 -22.2000 111.600 -1 -21.8870 111.166 -22.2000 111.600 TC -22.2075 111.590 7 12 228
1947035S15121 1947 13 SI WA NOT_NAMED 1947-02-07 21:00:00 TS -22.4754 110.829 main 287 287 ______P___P___ SH131947 -1 -22.3593 110.665 TC -22.6801 111.296 7 13 230
1947035S15121 1947 13 SI WA NOT_NAMED 1947-02-07 23:00:00 TS -22.7611 110.476 main 318 318 ______P___O___ SH131947 -1 -22.6790 110.333 TC -23.0000 111.100 7 14 237
1947035S15121 1947 13 SI WA NOT_NAMED 1947-02-08 00:00:00 TS -22.8596 110.178 main 350 350 ______P_______ -1 -22.8395 110.167 7 15 241
1947035S15121 1947 13 SI WA NOT_NAMED 1947-02-08 01:00:00 NR -23.0000 110.000 995 bom main 370 ______O_______ -1 -23.0000 110.000 995 7 13 230

IBTrACS Databaseについて

本データベースは、米国NOAAが公開する1842年以降の世界の熱帯低気圧のベストトラックデータアーカイブInternational Best Track Archive for Climate Stewardship (IBTrACS)を、ウェブで閲覧しやすい形式に変換したものです。

最終更新日:2021-10-08